Time;durP1;ratioP1;P1;durP2;ratioP2;P2;SDS_P1;SDS_P2;PMS_P1;PMS_P2;Temp;Humidity;BMP_temperature;BMP_pressure;BME280_temperature;BME280_humidity;BME280_pressure;Samples;Min_cycle;Max_cycle;Signal;HPM_P1;HPM_P2
2022/09/09 00:01:08;;;;;;;;;1.00;1.00;;;;;;;;5023633;28;8902;-77
2022/09/09 00:03:41;;;;;;;;;0.00;0.00;;;;;;;;5020568;28;8873;-78
2022/09/09 00:06:14;;;;;;;;;1.00;1.00;;;;;;;;5023692;28;8886;-77
2022/09/09 00:08:49;;;;;;;;;2.50;1.00;;;;;;;;5024916;28;8855;-77
2022/09/09 00:11:22;;;;;;;;;1.00;1.00;;;;;;;;5026489;28;8859;-77
2022/09/09 00:13:53;;;;;;;;;1.00;1.00;;;;;;;;5024611;28;9662;-77
2022/09/09 00:16:23;;;;;;;;;1.00;1.00;;;;;;;;5025684;28;8864;-76
2022/09/09 00:18:56;;;;;;;;;1.25;1.25;;;;;;;;5025500;28;8848;-76
2022/09/09 00:21:26;;;;;;;;;1.00;1.00;;;;;;;;5007740;28;8891;-76
2022/09/09 00:23:56;;;;;;;;;1.00;1.00;;;;;;;;5017034;28;8871;-76
2022/09/09 00:26:30;;;;;;;;;2.25;1.00;;;;;;;;5023135;28;8892;-77
2022/09/09 00:29:05;;;;;;;;;2.00;2.00;;;;;;;;5026273;28;8887;-76
2022/09/09 00:31:33;;;;;;;;;0.00;0.00;;;;;;;;5021907;28;8829;-76
2022/09/09 00:34:06;;;;;;;;;2.00;0.75;;;;;;;;5026189;28;8880;-76
2022/09/09 00:36:34;;;;;;;;;2.00;2.00;;;;;;;;5025163;28;8864;-77
2022/09/09 00:39:04;;;;;;;;;1.00;1.00;;;;;;;;5023564;28;9685;-76
2022/09/09 00:41:38;;;;;;;;;0.50;0.50;;;;;;;;5025128;28;8886;-76
2022/09/09 00:44:18;;;;;;;;;1.75;1.75;;;;;;;;5024270;28;8849;-77
2022/09/09 00:46:57;;;;;;;;;2.00;2.00;;;;;;;;5008420;28;8880;-77
2022/09/09 00:49:37;;;;;;;;;1.00;1.00;;;;;;;;5025334;28;8865;-77
2022/09/09 00:52:16;;;;;;;;;0.00;0.00;;;;;;;;5024341;28;8930;-76
2022/09/09 00:54:51;;;;;;;;;1.00;1.00;;;;;;;;5023291;28;8991;-76
2022/09/09 00:57:28;;;;;;;;;0.75;0.75;;;;;;;;5015701;28;8886;-76
2022/09/09 01:00:04;;;;;;;;;1.25;1.25;;;;;;;;5016681;28;8861;-77
2022/09/09 01:02:37;;;;;;;;;3.00;1.50;;;;;;;;5004655;28;8855;-76
2022/09/09 01:05:08;;;;;;;;;1.75;1.75;;;;;;;;5004301;28;8884;-76
2022/09/09 01:07:36;;;;;;;;;1.75;1.50;;;;;;;;4993213;28;8918;-76
2022/09/09 01:10:09;;;;;;;;;1.25;1.25;;;;;;;;5003394;28;8957;-77
2022/09/09 01:12:42;;;;;;;;;1.00;1.00;;;;;;;;5003687;28;9545;-76
2022/09/09 01:15:13;;;;;;;;;2.00;0.00;;;;;;;;4996485;28;8908;-77
2022/09/09 01:17:56;;;;;;;;;0.00;0.00;;;;;;;;5004889;28;8875;-77
2022/09/09 01:20:26;;;;;;;;;4.75;2.00;;;;;;;;5005029;28;8870;-76
2022/09/09 01:23:26;;;;;;;;;4.25;2.00;;;;;;;;5003795;28;8973;-76
2022/09/09 01:26:19;;;;;;;;;1.75;1.75;;;;;;;;5003539;28;8899;-76
2022/09/09 01:28:48;;;;;;;;;5.50;1.00;;;;;;;;5003693;28;8877;-77
2022/09/09 01:31:19;;;;;;;;;1.75;1.00;;;;;;;;4995402;28;8924;-77
2022/09/09 01:33:46;;;;;;;;;3.25;2.00;;;;;;;;5005269;28;9648;-76
2022/09/09 01:36:19;;;;;;;;;1.00;1.00;;;;;;;;5002872;28;8886;-75
2022/09/09 01:38:46;;;;;;;;;2.75;1.50;;;;;;;;5005139;28;8875;-77
2022/09/09 01:41:14;;;;;;;;;1.00;1.00;;;;;;;;5003921;28;8850;-76
2022/09/09 01:43:42;;;;;;;;;0.50;0.50;;;;;;;;5004101;28;8886;-76
2022/09/09 01:46:09;;;;;;;;;1.75;1.75;;;;;;;;5003848;28;8870;-76
2022/09/09 01:48:36;;;;;;;;;0.00;0.00;;;;;;;;5000505;28;9160;-76
2022/09/09 01:51:04;;;;;;;;;1.00;1.00;;;;;;;;4987688;28;8871;-76
2022/09/09 01:53:31;;;;;;;;;3.50;1.50;;;;;;;;5003222;28;8851;-76
2022/09/09 01:56:08;;;;;;;;;7.75;2.25;;;;;;;;5004472;28;8893;-77
2022/09/09 01:58:46;;;;;;;;;1.50;1.50;;;;;;;;4986095;28;8863;-77
2022/09/09 02:01:19;;;;;;;;;1.00;1.00;;;;;;;;5000760;28;8842;-77
2022/09/09 02:03:50;;;;;;;;;1.25;1.25;;;;;;;;5004629;28;8866;-76
2022/09/09 02:06:27;;;;;;;;;2.25;2.25;;;;;;;;4994625;28;8866;-76
2022/09/09 02:08:59;;;;;;;;;2.00;2.00;;;;;;;;5002936;28;9657;-77
2022/09/09 02:11:27;;;;;;;;;3.00;2.00;;;;;;;;5002389;28;8874;-76
2022/09/09 02:14:00;;;;;;;;;1.00;1.00;;;;;;;;5003824;28;8874;-76
2022/09/09 02:16:32;;;;;;;;;1.25;1.25;;;;;;;;5002342;28;8862;-76
2022/09/09 02:19:03;;;;;;;;;1.00;1.00;;;;;;;;5002860;28;8886;-76
2022/09/09 02:21:33;;;;;;;;;1.00;1.00;;;;;;;;5003017;28;8901;-77
2022/09/09 02:24:04;;;;;;;;;2.00;2.00;;;;;;;;5003260;28;8870;-76
2022/09/09 02:26:32;;;;;;;;;2.50;1.00;;;;;;;;5004008;28;8984;-76
2022/09/09 02:29:04;;;;;;;;;1.25;0.75;;;;;;;;5003558;28;8896;-77
2022/09/09 02:31:31;;;;;;;;;1.00;1.00;;;;;;;;5003107;28;8818;-77
2022/09/09 02:34:01;;;;;;;;;1.25;1.00;;;;;;;;5004327;28;8850;-76
2022/09/09 02:36:33;;;;;;;;;1.50;1.50;;;;;;;;5003124;28;8932;-77
2022/09/09 02:39:00;;;;;;;;;1.00;1.00;;;;;;;;5001613;28;8883;-75
2022/09/09 02:41:31;;;;;;;;;1.00;1.00;;;;;;;;5002307;28;8879;-76
2022/09/09 02:44:00;;;;;;;;;1.75;1.75;;;;;;;;4997578;28;9013;-76
2022/09/09 02:46:38;;;;;;;;;2.75;2.00;;;;;;;;5000516;28;8870;-76
2022/09/09 02:49:11;;;;;;;;;1.00;1.00;;;;;;;;5000290;28;8971;-76
2022/09/09 02:51:46;;;;;;;;;3.00;1.00;;;;;;;;5003617;28;8871;-76
2022/09/09 02:54:19;;;;;;;;;4.75;1.00;;;;;;;;5002528;28;8894;-76
2022/09/09 02:56:54;;;;;;;;;1.50;1.50;;;;;;;;5000508;28;8897;-76
2022/09/09 02:59:23;;;;;;;;;0.00;0.00;;;;;;;;5002022;28;8883;-76
2022/09/09 03:01:51;;;;;;;;;3.00;2.00;;;;;;;;5002289;28;8833;-76
2022/09/09 03:04:18;;;;;;;;;0.25;0.00;;;;;;;;5003699;28;8940;-75
2022/09/09 03:06:45;;;;;;;;;3.00;2.00;;;;;;;;5001860;28;8997;-76
2022/09/09 03:09:12;;;;;;;;;3.50;1.25;;;;;;;;5003397;28;8916;-76
2022/09/09 03:11:40;;;;;;;;;1.75;1.00;;;;;;;;5002187;28;8882;-76
2022/09/09 03:14:08;;;;;;;;;1.00;1.00;;;;;;;;5002622;28;8953;-76
2022/09/09 03:16:37;;;;;;;;;2.00;2.00;;;;;;;;4999855;28;8874;-76
2022/09/09 03:19:04;;;;;;;;;1.00;1.00;;;;;;;;5003017;28;8866;-76
2022/09/09 03:21:32;;;;;;;;;2.50;2.00;;;;;;;;5002769;28;8854;-76
2022/09/09 03:23:59;;;;;;;;;2.25;1.25;;;;;;;;5002742;28;8905;-76
2022/09/09 03:26:27;;;;;;;;;1.50;1.50;;;;;;;;5003221;28;8874;-76
2022/09/09 03:28:54;;;;;;;;;2.00;1.25;;;;;;;;5001547;28;8870;-76
2022/09/09 03:31:21;;;;;;;;;2.00;1.00;;;;;;;;4999173;28;8795;-76
2022/09/09 03:33:50;;;;;;;;;1.75;1.75;;;;;;;;5005606;28;9014;-76
2022/09/09 03:36:17;;;;;;;;;2.50;2.00;;;;;;;;5007128;28;8898;-76
2022/09/09 03:38:44;;;;;;;;;2.00;1.50;;;;;;;;5006877;28;9000;-76
2022/09/09 03:41:12;;;;;;;;;2.00;2.00;;;;;;;;5005520;28;8870;-76
2022/09/09 03:43:39;;;;;;;;;1.00;0.75;;;;;;;;5007071;28;8871;-76
2022/09/09 03:46:07;;;;;;;;;2.75;2.00;;;;;;;;5004567;28;9013;-76
2022/09/09 03:48:34;;;;;;;;;2.00;2.00;;;;;;;;5007281;28;8878;-76
2022/09/09 03:51:03;;;;;;;;;1.75;1.75;;;;;;;;5005339;28;8874;-76
2022/09/09 03:53:30;;;;;;;;;3.00;1.25;;;;;;;;5007401;28;8890;-76
2022/09/09 03:55:59;;;;;;;;;2.75;1.75;;;;;;;;5005986;28;8850;-76
2022/09/09 03:58:27;;;;;;;;;2.00;2.00;;;;;;;;5005766;28;8875;-76
2022/09/09 04:00:56;;;;;;;;;1.00;1.00;;;;;;;;5005141;28;8810;-77
2022/09/09 04:03:24;;;;;;;;;2.00;0.75;;;;;;;;5001871;28;8885;-78
2022/09/09 04:05:52;;;;;;;;;1.00;1.00;;;;;;;;5005528;28;8950;-77
2022/09/09 04:08:21;;;;;;;;;2.75;1.25;;;;;;;;5005077;28;9033;-77
2022/09/09 04:10:50;;;;;;;;;1.00;1.00;;;;;;;;5006334;28;8919;-76
2022/09/09 04:13:19;;;;;;;;;4.00;1.00;;;;;;;;5005305;28;8855;-76
2022/09/09 04:15:52;;;;;;;;;2.50;2.00;;;;;;;;5005595;28;9047;-77
2022/09/09 04:18:20;;;;;;;;;2.50;2.00;;;;;;;;5005990;28;8901;-77
2022/09/09 04:20:48;;;;;;;;;4.00;2.00;;;;;;;;4997662;28;8877;-77
2022/09/09 04:23:15;;;;;;;;;2.00;2.00;;;;;;;;5003069;28;8898;-77
2022/09/09 04:25:47;;;;;;;;;1.50;1.25;;;;;;;;5005496;28;8879;-76
2022/09/09 04:28:15;;;;;;;;;2.50;1.25;;;;;;;;5006105;28;8858;-77
2022/09/09 04:30:42;;;;;;;;;2.75;1.00;;;;;;;;5005152;28;8811;-77
2022/09/09 04:33:10;;;;;;;;;1.00;1.00;;;;;;;;5005601;28;8878;-76
2022/09/09 04:35:38;;;;;;;;;2.25;1.50;;;;;;;;5006218;28;8875;-76
2022/09/09 04:38:07;;;;;;;;;3.75;1.75;;;;;;;;4999835;28;9016;-76
2022/09/09 04:40:34;;;;;;;;;2.00;2.00;;;;;;;;5019755;28;8888;-76
2022/09/09 04:43:04;;;;;;;;;3.00;2.00;;;;;;;;5003676;28;8874;-76
2022/09/09 04:45:32;;;;;;;;;3.75;2.00;;;;;;;;5005607;28;8894;-77
2022/09/09 04:47:59;;;;;;;;;4.00;1.00;;;;;;;;5004223;28;8901;-76
2022/09/09 04:50:29;;;;;;;;;1.50;1.50;;;;;;;;5005723;28;8897;-76
2022/09/09 04:52:57;;;;;;;;;2.25;1.75;;;;;;;;5004413;28;8850;-77
2022/09/09 04:55:24;;;;;;;;;1.25;1.25;;;;;;;;5002949;28;8967;-79
2022/09/09 04:57:51;;;;;;;;;0.25;0.25;;;;;;;;5004091;28;8921;-77
2022/09/09 05:00:20;;;;;;;;;2.50;2.50;;;;;;;;5002127;28;8918;-77
2022/09/09 05:02:48;;;;;;;;;1.00;1.00;;;;;;;;5001527;28;8851;-74
2022/09/09 05:05:16;;;;;;;;;3.50;3.00;;;;;;;;5005352;28;8886;-77
2022/09/09 05:07:43;;;;;;;;;2.00;2.00;;;;;;;;5008406;28;9021;-74
2022/09/09 05:10:13;;;;;;;;;1.50;1.50;;;;;;;;5005149;28;8854;-73
2022/09/09 05:12:41;;;;;;;;;2.50;2.00;;;;;;;;5003025;28;8885;-74
2022/09/09 05:15:09;;;;;;;;;2.00;2.00;;;;;;;;5004731;28;8863;-73
2022/09/09 05:17:38;;;;;;;;;2.50;1.25;;;;;;;;5003738;28;8981;-74
2022/09/09 05:20:06;;;;;;;;;2.25;2.25;;;;;;;;5003655;28;8877;-75
2022/09/09 05:22:33;;;;;;;;;2.00;2.00;;;;;;;;5001867;28;9680;-76
2022/09/09 05:25:01;;;;;;;;;2.00;2.00;;;;;;;;5003009;28;8963;-75
2022/09/09 05:27:31;;;;;;;;;3.50;2.50;;;;;;;;5004603;28;8875;-75
2022/09/09 05:29:58;;;;;;;;;6.00;2.75;;;;;;;;5002114;28;9711;-75
2022/09/09 05:32:25;;;;;;;;;5.00;1.75;;;;;;;;5001064;28;8823;-73
2022/09/09 05:34:54;;;;;;;;;3.50;2.25;;;;;;;;5003398;28;8882;-75
2022/09/09 05:37:21;;;;;;;;;0.50;0.50;;;;;;;;5001517;28;8984;-76
2022/09/09 05:39:48;;;;;;;;;5.75;2.00;;;;;;;;5000966;28;8906;-82
2022/09/09 05:42:15;;;;;;;;;2.00;2.00;;;;;;;;5003758;28;8863;-75
2022/09/09 05:44:44;;;;;;;;;3.50;2.00;;;;;;;;5001557;28;8908;-78
2022/09/09 05:47:11;;;;;;;;;1.50;1.50;;;;;;;;5000225;28;8858;-75
2022/09/09 05:49:39;;;;;;;;;1.00;1.00;;;;;;;;5003396;28;8880;-75
2022/09/09 05:52:07;;;;;;;;;1.00;1.00;;;;;;;;5000182;28;8874;-76
2022/09/09 05:54:34;;;;;;;;;3.00;3.00;;;;;;;;5003317;28;8949;-76
2022/09/09 05:57:02;;;;;;;;;1.50;1.50;;;;;;;;5001895;28;8996;-75
2022/09/09 05:59:29;;;;;;;;;3.00;3.00;;;;;;;;5003351;28;8897;-74
2022/09/09 06:01:56;;;;;;;;;3.75;2.00;;;;;;;;4999806;28;8847;-75
2022/09/09 06:04:24;;;;;;;;;3.00;2.00;;;;;;;;5003788;28;8874;-75
2022/09/09 06:06:51;;;;;;;;;3.50;2.25;;;;;;;;5002519;28;8879;-75
2022/09/09 06:09:20;;;;;;;;;1.50;1.50;;;;;;;;5003187;28;8879;-75
2022/09/09 06:11:48;;;;;;;;;1.75;1.75;;;;;;;;5002799;28;8896;-75
2022/09/09 06:14:17;;;;;;;;;2.75;2.00;;;;;;;;5001972;28;8886;-75
2022/09/09 06:16:45;;;;;;;;;1.00;1.00;;;;;;;;4998612;28;8878;-75
2022/09/09 06:19:14;;;;;;;;;2.50;2.00;;;;;;;;4961615;28;1109012;-74
2022/09/09 06:21:42;;;;;;;;;3.00;3.00;;;;;;;;5003156;28;8897;-74
2022/09/09 06:24:09;;;;;;;;;3.50;1.75;;;;;;;;5002499;28;8878;-75
2022/09/09 06:26:40;;;;;;;;;3.00;2.00;;;;;;;;5002850;28;8916;-75
2022/09/09 06:29:08;;;;;;;;;1.75;1.75;;;;;;;;5003569;28;8855;-75
2022/09/09 06:31:36;;;;;;;;;3.25;1.25;;;;;;;;5000853;28;9596;-75
2022/09/09 06:34:06;;;;;;;;;4.00;2.25;;;;;;;;5003900;28;8886;-74
2022/09/09 06:36:34;;;;;;;;;1.50;1.50;;;;;;;;5000744;28;8908;-75
2022/09/09 06:39:02;;;;;;;;;2.00;2.00;;;;;;;;5003124;28;8940;-75
2022/09/09 06:41:31;;;;;;;;;4.00;2.25;;;;;;;;5002440;28;9656;-73
2022/09/09 06:44:00;;;;;;;;;1.00;1.00;;;;;;;;5003221;28;8883;-74
2022/09/09 06:46:30;;;;;;;;;1.50;1.50;;;;;;;;5001386;28;8906;-74
2022/09/09 06:48:59;;;;;;;;;4.00;1.00;;;;;;;;5001031;28;8875;-73
2022/09/09 06:51:28;;;;;;;;;4.00;2.25;;;;;;;;5003338;28;8993;-74
2022/09/09 06:53:58;;;;;;;;;3.50;2.00;;;;;;;;5001889;28;8882;-74
2022/09/09 06:56:27;;;;;;;;;4.00;3.00;;;;;;;;5002292;28;8948;-74
2022/09/09 06:58:55;;;;;;;;;2.25;2.25;;;;;;;;4999679;28;8863;-74
2022/09/09 07:01:26;;;;;;;;;2.00;2.00;;;;;;;;5011316;28;8808;-74
2022/09/09 07:03:54;;;;;;;;;2.00;2.00;;;;;;;;5023127;28;8900;-73
2022/09/09 07:06:23;;;;;;;;;2.00;2.00;;;;;;;;5019567;28;8885;-73
2022/09/09 07:08:52;;;;;;;;;3.00;3.00;;;;;;;;5022014;28;8860;-73
2022/09/09 07:11:22;;;;;;;;;2.75;2.75;;;;;;;;5019652;28;8906;-73
2022/09/09 07:13:50;;;;;;;;;0.25;0.25;;;;;;;;5021415;28;8877;-73
2022/09/09 07:16:19;;;;;;;;;2.25;2.25;;;;;;;;5020989;28;8861;-73
2022/09/09 07:18:50;;;;;;;;;1.00;1.00;;;;;;;;5021246;28;8900;-73
2022/09/09 07:21:18;;;;;;;;;4.00;2.25;;;;;;;;5005614;28;8856;-73
2022/09/09 07:23:46;;;;;;;;;4.50;3.00;;;;;;;;5015131;28;8879;-73
2022/09/09 07:26:15;;;;;;;;;2.00;2.00;;;;;;;;5022070;28;8869;-73
2022/09/09 07:28:43;;;;;;;;;3.00;1.50;;;;;;;;5019636;28;8911;-73
2022/09/09 07:31:16;;;;;;;;;1.50;1.50;;;;;;;;5020947;28;8832;-73
2022/09/09 07:33:44;;;;;;;;;2.75;1.25;;;;;;;;5022701;28;9631;-75
2022/09/09 07:36:15;;;;;;;;;2.00;2.00;;;;;;;;5027212;28;8862;-73
2022/09/09 07:38:45;;;;;;;;;3.25;2.00;;;;;;;;5023105;28;8864;-73
2022/09/09 07:41:14;;;;;;;;;3.50;2.00;;;;;;;;5021324;28;8860;-73
2022/09/09 07:43:41;;;;;;;;;1.00;1.00;;;;;;;;5022956;28;8951;-74
2022/09/09 07:46:10;;;;;;;;;2.00;2.00;;;;;;;;5020898;28;8865;-74
2022/09/09 07:48:37;;;;;;;;;2.00;2.00;;;;;;;;5023141;28;8942;-74
2022/09/09 07:51:07;;;;;;;;;3.00;1.25;;;;;;;;5021865;28;8896;-74
2022/09/09 07:53:38;;;;;;;;;2.00;2.00;;;;;;;;5022456;28;8864;-74
2022/09/09 07:56:07;;;;;;;;;3.75;2.50;;;;;;;;5022613;28;9246;-73
2022/09/09 07:58:35;;;;;;;;;1.75;1.75;;;;;;;;5020799;28;8873;-73
2022/09/09 08:01:06;;;;;;;;;6.00;3.00;;;;;;;;5005205;28;8813;-73
2022/09/09 08:03:34;;;;;;;;;2.50;1.25;;;;;;;;5021683;28;8908;-73
2022/09/09 08:06:02;;;;;;;;;3.75;1.00;;;;;;;;5022774;28;8873;-73
2022/09/09 08:08:30;;;;;;;;;1.25;1.25;;;;;;;;5022325;28;8857;-73
2022/09/09 08:11:07;;;;;;;;;3.00;3.00;;;;;;;;5017884;28;8949;-71
2022/09/09 08:13:34;;;;;;;;;2.00;2.00;;;;;;;;5012803;28;8873;-71
2022/09/09 08:16:12;;;;;;;;;4.75;3.00;;;;;;;;5021991;28;9608;-71
2022/09/09 08:18:40;;;;;;;;;6.50;3.00;;;;;;;;5021512;28;8877;-72
2022/09/09 08:21:12;;;;;;;;;2.25;1.00;;;;;;;;5025140;28;8852;-71
2022/09/09 08:23:41;;;;;;;;;1.25;1.25;;;;;;;;5025301;28;8872;-71
2022/09/09 08:26:13;;;;;;;;;2.00;2.00;;;;;;;;5022664;28;8860;-70
2022/09/09 08:28:40;;;;;;;;;2.25;2.00;;;;;;;;5026772;28;8883;-71
2022/09/09 08:31:10;;;;;;;;;2.00;2.00;;;;;;;;5025094;28;8821;-72
2022/09/09 08:33:38;;;;;;;;;2.75;2.00;;;;;;;;5024450;28;8978;-72
2022/09/09 08:36:06;;;;;;;;;3.00;1.00;;;;;;;;5026411;28;8868;-73
2022/09/09 08:38:34;;;;;;;;;2.00;2.00;;;;;;;;5030458;28;8850;-72
2022/09/09 08:41:25;;;;;;;;;5.00;2.75;;;;;;;;5025074;28;8915;-73
2022/09/09 08:44:03;;;;;;;;;3.00;2.00;;;;;;;;5012116;28;9689;-77
2022/09/09 08:46:35;;;;;;;;;1.50;1.50;;;;;;;;5019656;28;8875;-75
2022/09/09 08:49:08;;;;;;;;;2.75;1.25;;;;;;;;5024539;28;8880;-74
2022/09/09 08:51:35;;;;;;;;;1.00;0.00;;;;;;;;5028635;28;8864;-75
2022/09/09 08:54:04;;;;;;;;;3.00;3.00;;;;;;;;5023154;28;8873;-78
2022/09/09 08:56:33;;;;;;;;;2.75;2.25;;;;;;;;5021686;28;8881;-75
2022/09/09 08:59:05;;;;;;;;;2.50;1.00;;;;;;;;5022888;28;8867;-75
2022/09/09 09:01:58;;;;;;;;;0.75;0.75;;;;;;;;5007025;28;8882;-75
2022/09/09 09:04:41;;;;;;;;;6.25;2.25;;;;;;;;5019179;28;8869;-75
2022/09/09 09:07:20;;;;;;;;;1.75;1.75;;;;;;;;5021760;28;8880;-75
2022/09/09 09:09:58;;;;;;;;;2.00;2.00;;;;;;;;5007467;28;8857;-74
2022/09/09 09:12:28;;;;;;;;;2.75;1.00;;;;;;;;5022181;28;8886;-73
2022/09/09 09:14:58;;;;;;;;;1.00;1.00;;;;;;;;5024511;28;9526;-75
2022/09/09 09:17:30;;;;;;;;;0.50;0.50;;;;;;;;5023837;28;9001;-76
2022/09/09 09:19:58;;;;;;;;;1.00;1.00;;;;;;;;5024713;28;8884;-75
2022/09/09 09:22:32;;;;;;;;;1.00;1.00;;;;;;;;5024478;28;8969;-74
2022/09/09 09:25:06;;;;;;;;;1.00;1.00;;;;;;;;5024987;28;8898;-73
2022/09/09 09:27:35;;;;;;;;;2.00;2.00;;;;;;;;5023623;28;8865;-73
2022/09/09 09:30:14;;;;;;;;;1.75;1.00;;;;;;;;5021912;28;9705;-72
2022/09/09 09:32:48;;;;;;;;;1.00;1.00;;;;;;;;5023938;28;8848;-71
2022/09/09 09:35:16;;;;;;;;;2.25;1.00;;;;;;;;5024962;28;8848;-71
2022/09/09 09:37:45;;;;;;;;;0.75;0.75;;;;;;;;5024811;28;8919;-73
2022/09/09 09:40:14;;;;;;;;;1.50;1.25;;;;;;;;5024394;28;8906;-73
2022/09/09 09:42:51;;;;;;;;;1.50;1.00;;;;;;;;5022984;28;8894;-74
2022/09/09 09:45:28;;;;;;;;;1.60;1.60;;;;;;;;5023436;28;8864;-73
2022/09/09 09:48:04;;;;;;;;;3.00;1.00;;;;;;;;5022914;28;8962;-72
2022/09/09 09:50:32;;;;;;;;;1.00;1.00;;;;;;;;5023196;28;8903;-74
2022/09/09 09:53:01;;;;;;;;;1.00;1.00;;;;;;;;5024143;28;8852;-73
2022/09/09 09:55:31;;;;;;;;;1.00;1.00;;;;;;;;5022536;28;9432;-73
2022/09/09 09:58:03;;;;;;;;;2.00;2.00;;;;;;;;5024485;28;8895;-71
2022/09/09 10:00:34;;;;;;;;;1.00;1.00;;;;;;;;5020378;28;8833;-71
2022/09/09 10:03:02;;;;;;;;;1.80;1.80;;;;;;;;5024625;28;8868;-71
2022/09/09 10:05:30;;;;;;;;;0.80;0.80;;;;;;;;5023369;28;8886;-71
2022/09/09 10:08:06;;;;;;;;;1.00;1.00;;;;;;;;5024080;28;9628;-71
2022/09/09 10:10:43;;;;;;;;;1.00;1.00;;;;;;;;5022869;28;8971;-72
2022/09/09 10:13:15;;;;;;;;;3.00;1.40;;;;;;;;5021873;28;8939;-72
2022/09/09 10:15:51;;;;;;;;;3.80;1.00;;;;;;;;5017880;28;8888;-73
2022/09/09 10:18:33;;;;;;;;;1.00;1.00;;;;;;;;5019056;28;8962;-73
2022/09/09 10:21:07;;;;;;;;;1.40;1.40;;;;;;;;5026381;28;8876;-74
2022/09/09 10:23:50;;;;;;;;;1.60;1.00;;;;;;;;5024015;28;8852;-73
2022/09/09 10:26:33;;;;;;;;;1.40;1.00;;;;;;;;5020662;28;8875;-73
2022/09/09 10:29:12;;;;;;;;;1.00;1.00;;;;;;;;5023639;28;8877;-73
2022/09/09 10:31:51;;;;;;;;;2.40;2.00;;;;;;;;5021281;28;8823;-73
2022/09/09 10:34:28;;;;;;;;;0.00;0.00;;;;;;;;5017139;28;8874;-73
2022/09/09 10:36:56;;;;;;;;;1.00;1.00;;;;;;;;5023011;28;9676;-74
2022/09/09 10:39:35;;;;;;;;;0.00;0.00;;;;;;;;5022419;28;8872;-74
2022/09/09 10:42:07;;;;;;;;;0.00;0.00;;;;;;;;5020795;28;8884;-74
2022/09/09 10:44:57;;;;;;;;;1.00;1.00;;;;;;;;5022235;28;8966;-73
2022/09/09 10:47:46;;;;;;;;;1.20;1.20;;;;;;;;5021478;28;8885;-73
2022/09/09 10:50:31;;;;;;;;;0.80;0.80;;;;;;;;5015494;28;8904;-72
2022/09/09 10:53:08;;;;;;;;;1.00;1.00;;;;;;;;5010963;28;8880;-75
2022/09/09 10:55:38;;;;;;;;;2.00;1.00;;;;;;;;5019105;28;8899;-72
2022/09/09 10:58:08;;;;;;;;;0.60;0.60;;;;;;;;5023378;28;8907;-73
2022/09/09 11:00:41;;;;;;;;;1.00;1.00;;;;;;;;5025056;28;9321;-73
2022/09/09 11:03:19;;;;;;;;;2.20;1.00;;;;;;;;5023639;28;8887;-72
2022/09/09 11:05:49;;;;;;;;;1.00;1.00;;;;;;;;5022530;28;9662;-72
2022/09/09 11:08:19;;;;;;;;;1.00;1.00;;;;;;;;5019850;28;8875;-73
2022/09/09 11:10:52;;;;;;;;;0.80;0.80;;;;;;;;5020635;28;9701;-72
2022/09/09 11:13:24;;;;;;;;;1.00;1.00;;;;;;;;5006615;28;8888;-73
2022/09/09 11:15:54;;;;;;;;;1.80;1.80;;;;;;;;5023346;28;8868;-72
2022/09/09 11:18:23;;;;;;;;;1.00;1.00;;;;;;;;5022512;28;9522;-73
2022/09/09 11:20:55;;;;;;;;;2.60;1.00;;;;;;;;5022161;28;9603;-72
2022/09/09 11:23:27;;;;;;;;;2.20;1.40;;;;;;;;5022999;28;8943;-72
2022/09/09 11:25:58;;;;;;;;;1.60;1.60;;;;;;;;5023831;28;8907;-72
2022/09/09 11:28:36;;;;;;;;;4.40;1.40;;;;;;;;5023173;28;8872;-72
2022/09/09 11:31:16;;;;;;;;;2.60;2.60;;;;;;;;5015366;28;8875;-71
2022/09/09 11:33:57;;;;;;;;;2.00;1.00;;;;;;;;5023206;28;8872;-72
2022/09/09 11:37:06;;;;;;;;;2.00;2.00;;;;;;;;5022666;28;8873;-72
2022/09/09 11:39:52;;;;;;;;;2.00;2.00;;;;;;;;4998068;28;9485;-72
2022/09/09 11:42:22;;;;;;;;;1.40;1.40;;;;;;;;5022148;28;8897;-72
2022/09/09 11:44:49;;;;;;;;;1.20;1.20;;;;;;;;5021119;28;8894;-72
2022/09/09 11:47:29;;;;;;;;;2.00;2.00;;;;;;;;5022777;28;8877;-71
2022/09/09 11:50:09;;;;;;;;;1.60;1.60;;;;;;;;5022819;28;8856;-72
2022/09/09 11:52:42;;;;;;;;;2.00;2.00;;;;;;;;5022686;28;9765;-71
2022/09/09 11:55:25;;;;;;;;;2.00;2.00;;;;;;;;5026558;28;9645;-71
2022/09/09 11:57:59;;;;;;;;;3.20;1.00;;;;;;;;5025695;28;8963;-71
2022/09/09 12:00:34;;;;;;;;;2.00;2.00;;;;;;;;5021614;28;8812;-71
2022/09/09 12:03:01;;;;;;;;;4.00;4.00;;;;;;;;5026360;28;8934;-71
2022/09/09 12:05:40;;;;;;;;;2.00;2.00;;;;;;;;5025864;28;8983;-73
2022/09/09 12:08:09;;;;;;;;;5.40;3.40;;;;;;;;5026876;28;8979;-72
2022/09/09 12:10:39;;;;;;;;;2.00;2.00;;;;;;;;5024683;28;8942;-72
2022/09/09 12:13:16;;;;;;;;;2.00;2.00;;;;;;;;5026467;28;8979;-73
2022/09/09 12:15:49;;;;;;;;;1.75;1.75;;;;;;;;5026107;28;8955;-72
2022/09/09 12:18:23;;;;;;;;;3.00;2.00;;;;;;;;5022040;28;8998;-72
2022/09/09 12:20:58;;;;;;;;;3.25;1.00;;;;;;;;5002145;28;8885;-72
2022/09/09 12:23:35;;;;;;;;;3.00;3.00;;;;;;;;4985142;28;8991;-72
2022/09/09 12:26:13;;;;;;;;;2.25;2.00;;;;;;;;4986962;28;9669;-72
2022/09/09 12:28:54;;;;;;;;;3.75;3.75;;;;;;;;4986170;28;8873;-72
2022/09/09 12:31:26;;;;;;;;;2.00;2.00;;;;;;;;4984889;28;8823;-72
2022/09/09 12:33:53;;;;;;;;;2.00;2.00;;;;;;;;4986478;28;8865;-72
2022/09/09 12:36:25;;;;;;;;;2.00;1.00;;;;;;;;4985608;28;8881;-71
2022/09/09 12:38:53;;;;;;;;;1.75;1.75;;;;;;;;4987293;28;8915;-71
2022/09/09 12:41:21;;;;;;;;;1.00;1.00;;;;;;;;4985075;28;8896;-71
2022/09/09 12:43:49;;;;;;;;;4.00;3.00;;;;;;;;4986530;28;8979;-73
2022/09/09 12:46:24;;;;;;;;;2.00;2.00;;;;;;;;4985920;28;8883;-72
2022/09/09 12:48:52;;;;;;;;;3.00;2.00;;;;;;;;4985690;28;8889;-72
2022/09/09 12:51:24;;;;;;;;;1.75;1.75;;;;;;;;4985834;28;8913;-72
2022/09/09 12:53:53;;;;;;;;;1.00;0.75;;;;;;;;4984866;28;8877;-72
2022/09/09 12:56:22;;;;;;;;;1.50;1.50;;;;;;;;4986542;28;8897;-72
2022/09/09 12:58:52;;;;;;;;;3.00;2.00;;;;;;;;4985317;28;8987;-71
2022/09/09 13:01:22;;;;;;;;;1.75;1.75;;;;;;;;4985467;28;8842;-72
2022/09/09 13:03:50;;;;;;;;;4.25;3.00;;;;;;;;4986198;28;8896;-72
2022/09/09 13:06:23;;;;;;;;;4.20;2.00;;;;;;;;4985633;28;8873;-72
2022/09/09 13:08:51;;;;;;;;;4.25;3.00;;;;;;;;4974631;28;8876;-71
2022/09/09 13:11:22;;;;;;;;;1.40;1.40;;;;;;;;4984722;28;9697;-71
2022/09/09 13:13:53;;;;;;;;;2.00;2.00;;;;;;;;4984734;28;8877;-71
2022/09/09 13:16:23;;;;;;;;;2.00;2.00;;;;;;;;4984799;28;8888;-72
2022/09/09 13:18:51;;;;;;;;;1.00;1.00;;;;;;;;4994342;28;9704;-71
2022/09/09 13:21:20;;;;;;;;;2.00;2.00;;;;;;;;5021914;28;9034;-71
2022/09/09 13:23:52;;;;;;;;;3.40;3.40;;;;;;;;5023230;28;8879;-71
2022/09/09 13:26:25;;;;;;;;;3.00;3.00;;;;;;;;5019531;28;8900;-72
2022/09/09 13:28:53;;;;;;;;;1.80;1.80;;;;;;;;5023606;28;8907;-72
2022/09/09 13:31:23;;;;;;;;;1.80;1.80;;;;;;;;5024204;28;8829;-72
2022/09/09 13:33:52;;;;;;;;;2.00;2.00;;;;;;;;5024174;28;8899;-71
2022/09/09 13:36:30;;;;;;;;;2.00;2.00;;;;;;;;5024397;28;8880;-72
2022/09/09 13:39:00;;;;;;;;;3.00;3.00;;;;;;;;5025287;28;8869;-71
2022/09/09 13:41:31;;;;;;;;;1.60;1.60;;;;;;;;5022902;28;8884;-71
2022/09/09 13:43:58;;;;;;;;;1.60;1.60;;;;;;;;5024583;28;8940;-72
2022/09/09 13:46:29;;;;;;;;;2.00;2.00;;;;;;;;5022564;28;8994;-72
2022/09/09 13:48:57;;;;;;;;;4.40;2.00;;;;;;;;5024808;28;8977;-72
2022/09/09 13:51:32;;;;;;;;;2.80;2.00;;;;;;;;5024493;28;8880;-71
2022/09/09 13:54:01;;;;;;;;;1.00;1.00;;;;;;;;5023708;28;8926;-72
2022/09/09 13:56:28;;;;;;;;;0.00;0.00;;;;;;;;5025836;28;8868;-71
2022/09/09 13:58:58;;;;;;;;;1.40;1.40;;;;;;;;5018715;28;8868;-71
2022/09/09 14:01:28;;;;;;;;;1.00;1.00;;;;;;;;5023920;28;8886;-72
2022/09/09 14:03:58;;;;;;;;;1.00;1.00;;;;;;;;5023454;28;8914;-72
2022/09/09 14:06:26;;;;;;;;;4.00;2.00;;;;;;;;5025247;28;9657;-72
2022/09/09 14:08:54;;;;;;;;;78.25;64.50;;;;;;;;5024436;28;8881;-71
2022/09/09 14:11:23;;;;;;;;;0.00;0.00;;;;;;;;5023491;28;8954;-73
2022/09/09 14:13:50;;;;;;;;;5.00;5.00;;;;;;;;5024232;28;8868;-71
2022/09/09 14:16:18;;;;;;;;;18.75;18.75;;;;;;;;5021478;28;8864;-73
2022/09/09 14:18:45;;;;;;;;;9.40;8.20;;;;;;;;5024028;28;8895;-71
2022/09/09 14:21:13;;;;;;;;;6.60;5.20;;;;;;;;5022637;28;8974;-72
2022/09/09 14:23:40;;;;;;;;;7.20;5.60;;;;;;;;5023561;28;8884;-72
2022/09/09 14:26:08;;;;;;;;;8.00;5.00;;;;;;;;5023174;28;8903;-71
2022/09/09 14:28:37;;;;;;;;;1.80;1.20;;;;;;;;5023068;28;8899;-73
2022/09/09 14:31:05;;;;;;;;;1.00;1.00;;;;;;;;5023176;28;8865;-73
2022/09/09 14:33:33;;;;;;;;;1.60;1.60;;;;;;;;5022020;28;8872;-71
2022/09/09 14:36:00;;;;;;;;;1.00;1.00;;;;;;;;5023960;28;8999;-73
2022/09/09 14:38:31;;;;;;;;;1.00;1.00;;;;;;;;5010715;28;8868;-71
2022/09/09 14:40:59;;;;;;;;;1.00;1.00;;;;;;;;5023579;28;8930;-71
2022/09/09 14:43:27;;;;;;;;;4.00;2.00;;;;;;;;5023117;28;8868;-71
2022/09/09 14:45:56;;;;;;;;;1.00;1.00;;;;;;;;5022745;28;8876;-72
2022/09/09 14:48:23;;;;;;;;;0.80;0.80;;;;;;;;5024152;28;9642;-72
2022/09/09 14:50:50;;;;;;;;;1.00;1.00;;;;;;;;5021289;28;8880;-73
2022/09/09 14:53:18;;;;;;;;;1.00;0.00;;;;;;;;5023969;28;8869;-72
2022/09/09 14:55:46;;;;;;;;;1.00;1.00;;;;;;;;5021835;28;8864;-72
2022/09/09 14:58:14;;;;;;;;;1.00;1.00;;;;;;;;5023725;28;8853;-72
2022/09/09 15:00:41;;;;;;;;;0.00;0.00;;;;;;;;5021879;28;8797;-72
2022/09/09 15:03:10;;;;;;;;;2.00;0.20;;;;;;;;5022832;28;8906;-72
2022/09/09 15:05:37;;;;;;;;;0.00;0.00;;;;;;;;5023607;28;8860;-73
2022/09/09 15:08:05;;;;;;;;;0.20;0.20;;;;;;;;5018682;28;8994;-73
2022/09/09 15:10:32;;;;;;;;;0.60;0.00;;;;;;;;5022489;28;8864;-73
2022/09/09 15:13:00;;;;;;;;;0.00;0.00;;;;;;;;5020428;28;8876;-74
2022/09/09 15:15:27;;;;;;;;;0.00;0.00;;;;;;;;5023255;28;8915;-73
2022/09/09 15:17:55;;;;;;;;;0.00;0.00;;;;;;;;5016694;28;8873;-73